createdAt,value
2022-08-28T00:01:01.536Z,22.23
2022-08-28T00:03:30.445Z,23.42
2022-08-28T00:05:57.876Z,20.77
2022-08-28T00:08:25.322Z,25.67
2022-08-28T00:10:52.929Z,20.30
2022-08-28T00:13:21.572Z,24.83
2022-08-28T00:15:50.482Z,20.58
2022-08-28T00:18:18.549Z,22.00
2022-08-28T00:20:46.625Z,22.73
2022-08-28T00:23:13.957Z,20.27
2022-08-28T00:25:41.303Z,23.00
2022-08-28T00:28:10.489Z,20.38
2022-08-28T00:30:46.477Z,20.27
2022-08-28T00:33:16.186Z,24.73
2022-08-28T00:35:43.879Z,24.77
2022-08-28T00:38:12.251Z,22.67
2022-08-28T00:40:40.990Z,17.88
2022-08-28T00:43:09.816Z,25.73
2022-08-28T00:45:40.008Z,23.90
2022-08-28T00:48:07.971Z,22.73
2022-08-28T00:50:56.882Z,22.52
2022-08-28T00:53:30.091Z,21.95
2022-08-28T00:56:02.408Z,25.30
2022-08-28T00:58:34.562Z,24.13
2022-08-28T01:01:01.886Z,25.27
2022-08-28T01:03:29.232Z,22.52
2022-08-28T01:05:56.727Z,24.70
2022-08-28T01:08:24.190Z,21.83
2022-08-28T01:10:53.348Z,27.60
2022-08-28T01:13:21.394Z,28.25
2022-08-28T01:15:49.488Z,20.83
2022-08-28T01:18:17.161Z,21.25
2022-08-28T01:20:57.918Z,29.85
2022-08-28T01:23:43.635Z,23.98
2022-08-28T01:26:11.629Z,23.88
2022-08-28T01:28:39.947Z,22.90
2022-08-28T01:31:10.110Z,23.35
2022-08-28T01:33:37.814Z,22.17
2022-08-28T01:36:10.856Z,21.88
2022-08-28T01:38:38.518Z,18.52
2022-08-28T01:41:05.930Z,26.10
2022-08-28T01:43:33.397Z,24.58
2022-08-28T01:46:02.574Z,22.33
2022-08-28T01:48:30.955Z,25.23
2022-08-28T01:50:58.367Z,27.08
2022-08-28T01:53:32.701Z,25.83
2022-08-28T01:56:01.171Z,26.52
2022-08-28T01:58:28.800Z,22.95
2022-08-28T02:00:57.574Z,18.83
2022-08-28T02:03:24.949Z,25.00
2022-08-28T02:05:52.342Z,25.52
2022-08-28T02:08:19.708Z,20.88
2022-08-28T02:10:47.312Z,23.80
2022-08-28T02:13:14.707Z,23.52
2022-08-28T02:15:43.204Z,19.40
2022-08-28T02:18:10.932Z,21.70
2022-08-28T02:20:38.413Z,18.65
2022-08-28T02:23:06.320Z,21.17
2022-08-28T02:25:33.862Z,24.23
2022-08-28T02:28:01.193Z,23.13
2022-08-28T02:30:28.699Z,22.52
2022-08-28T02:32:56.111Z,24.00
2022-08-28T02:35:24.511Z,23.52
2022-08-28T02:37:52.429Z,23.45
2022-08-28T02:40:23.993Z,19.95
2022-08-28T02:42:52.265Z,22.10
2022-08-28T02:45:20.101Z,26.63
2022-08-28T02:47:48.033Z,25.08
2022-08-28T02:50:17.665Z,22.83
2022-08-28T02:52:45.321Z,37.72
2022-08-28T02:55:13.190Z,24.35
2022-08-28T02:57:40.552Z,24.95
2022-08-28T03:00:13.675Z,27.73
2022-08-28T03:02:41.394Z,24.38
2022-08-28T03:05:10.035Z,21.48
2022-08-28T03:07:37.531Z,21.02
2022-08-28T03:10:05.305Z,27.63
2022-08-28T03:12:32.602Z,30.38
2022-08-28T03:14:59.938Z,25.83
2022-08-28T03:17:28.729Z,23.90
2022-08-28T03:19:56.078Z,24.95
2022-08-28T03:22:43.325Z,22.98
2022-08-28T03:25:11.390Z,23.00
2022-08-28T03:27:39.051Z,22.38
2022-08-28T03:30:08.006Z,24.27
2022-08-28T03:32:35.466Z,29.00
2022-08-28T03:35:03.130Z,26.25
2022-08-28T03:37:30.523Z,20.38
2022-08-28T03:39:57.870Z,24.13
2022-08-28T03:42:25.292Z,21.48
2022-08-28T03:44:52.652Z,23.42
2022-08-28T03:47:21.217Z,25.27
2022-08-28T03:49:49.328Z,20.60
2022-08-28T03:52:16.765Z,20.73
2022-08-28T03:54:44.053Z,23.23
2022-08-28T03:57:11.399Z,25.63
2022-08-28T03:59:38.694Z,21.30
2022-08-28T04:02:06.018Z,26.20
2022-08-28T04:04:34.462Z,27.95
2022-08-28T04:07:01.790Z,25.65
2022-08-28T04:09:29.131Z,25.30
2022-08-28T04:11:56.441Z,23.77
2022-08-28T04:14:23.729Z,22.73
2022-08-28T04:16:51.101Z,28.73
2022-08-28T04:19:18.471Z,23.88
2022-08-28T04:21:45.817Z,21.58
2022-08-28T04:24:13.805Z,18.58
2022-08-28T04:26:42.957Z,21.60
2022-08-28T04:29:10.301Z,20.60
2022-08-28T04:31:37.803Z,23.27
2022-08-28T04:34:06.636Z,20.48
2022-08-28T04:36:34.164Z,19.52
2022-08-28T04:39:01.670Z,22.40
2022-08-28T04:41:29.966Z,23.20
2022-08-28T04:43:57.817Z,22.77
2022-08-28T04:46:25.463Z,23.48
2022-08-28T04:48:53.219Z,21.88
2022-08-28T04:51:20.679Z,20.17
2022-08-28T04:53:48.193Z,19.15
2022-08-28T04:56:15.979Z,19.92
2022-08-28T04:58:44.261Z,18.33
2022-08-28T05:01:13.717Z,18.17
2022-08-28T05:03:42.476Z,19.45
2022-08-28T05:06:09.977Z,20.83
2022-08-28T05:08:37.286Z,19.65
2022-08-28T05:11:32.791Z,18.60
2022-08-28T05:14:01.699Z,15.68
2022-08-28T05:16:29.086Z,21.23
2022-08-28T05:19:00.426Z,19.13
2022-08-28T05:21:28.369Z,18.27
2022-08-28T05:23:56.866Z,19.70
2022-08-28T05:26:26.777Z,19.13
2022-08-28T05:28:56.236Z,21.95
2022-08-28T05:31:24.252Z,14.30
2022-08-28T05:33:52.862Z,17.67
2022-08-28T05:36:25.349Z,15.35
2022-08-28T05:38:57.620Z,18.50
2022-08-28T05:41:26.537Z,17.73
2022-08-28T05:43:54.190Z,18.33
2022-08-28T05:46:22.508Z,20.15
2022-08-28T05:48:50.045Z,16.25
2022-08-28T05:51:20.249Z,17.38
2022-08-28T05:53:50.068Z,14.88
2022-08-28T05:56:19.159Z,19.20
2022-08-28T05:58:46.531Z,13.73
2022-08-28T06:01:13.847Z,17.30
2022-08-28T06:03:42.522Z,16.35
2022-08-28T06:06:10.678Z,15.23
2022-08-28T06:08:38.994Z,16.08
2022-08-28T06:11:26.480Z,18.23
2022-08-28T06:13:54.617Z,17.52
2022-08-28T06:16:23.509Z,15.65
2022-08-28T06:18:51.603Z,20.23
2022-08-28T06:21:18.978Z,14.88
2022-08-28T06:23:46.675Z,15.55
2022-08-28T06:26:14.017Z,13.73
2022-08-28T06:28:41.363Z,17.50
2022-08-28T06:31:23.373Z,17.65
2022-08-28T06:33:54.168Z,13.38
2022-08-28T06:36:22.084Z,16.67
2022-08-28T06:38:49.600Z,14.63
2022-08-28T06:41:17.202Z,14.20
2022-08-28T06:43:44.515Z,12.25
2022-08-28T06:46:12.045Z,14.73
2022-08-28T06:48:39.790Z,10.60
2022-08-28T06:51:09.509Z,13.07
2022-08-28T06:53:37.622Z,17.00
2022-08-28T06:56:07.795Z,14.85
2022-08-28T06:58:36.296Z,11.90
2022-08-28T07:01:06.704Z,17.27
2022-08-28T07:03:34.472Z,11.63
2022-08-28T07:06:03.219Z,14.75
2022-08-28T07:08:30.890Z,11.55
2022-08-28T07:10:58.909Z,11.95
2022-08-28T07:13:29.121Z,16.27
2022-08-28T07:15:58.338Z,13.55
2022-08-28T07:18:25.801Z,15.32
2022-08-28T07:20:57.575Z,10.85
2022-08-28T07:23:25.834Z,11.60
2022-08-28T07:25:53.258Z,12.25
2022-08-28T07:28:20.987Z,12.95
2022-08-28T07:30:58.135Z,15.80
2022-08-28T07:33:25.870Z,12.13
2022-08-28T07:35:53.637Z,15.75
2022-08-28T07:38:21.417Z,14.38
2022-08-28T07:40:48.833Z,11.05
2022-08-28T07:43:34.763Z,14.30
2022-08-28T07:46:03.682Z,15.65
2022-08-28T07:48:31.009Z,13.02
2022-08-28T07:50:58.336Z,12.07
2022-08-28T07:53:25.670Z,12.32
2022-08-28T07:55:53.096Z,10.30
2022-08-28T07:58:21.329Z,20.00
2022-08-28T08:00:48.815Z,11.95
2022-08-28T08:03:16.684Z,10.10
2022-08-28T08:05:52.317Z,11.77
2022-08-28T08:08:19.971Z,12.70
2022-08-28T08:10:57.359Z,11.55
2022-08-28T08:13:24.881Z,9.02
2022-08-28T08:15:53.141Z,11.52
2022-08-28T08:18:20.840Z,13.13
2022-08-28T08:20:51.844Z,11.70
2022-08-28T08:23:19.206Z,12.10
2022-08-28T08:25:56.711Z,11.35
2022-08-28T08:28:24.064Z,9.93
2022-08-28T08:30:51.427Z,8.57
2022-08-28T08:33:18.783Z,9.60
2022-08-28T08:35:46.123Z,10.07
2022-08-28T08:38:13.496Z,10.23
2022-08-28T08:40:40.946Z,12.73
2022-08-28T08:43:09.279Z,11.82
2022-08-28T08:45:37.096Z,10.82
2022-08-28T08:48:04.582Z,9.20
2022-08-28T08:50:36.364Z,12.52
2022-08-28T08:53:09.992Z,8.25
2022-08-28T08:55:43.092Z,10.73
2022-08-28T08:58:12.153Z,7.65
2022-08-28T09:00:44.241Z,7.88
2022-08-28T09:03:16.640Z,12.52
2022-08-28T09:05:50.192Z,8.35
2022-08-28T09:08:37.787Z,6.82
2022-08-28T09:11:16.496Z,7.20
2022-08-28T09:13:43.799Z,7.55
2022-08-28T09:16:21.995Z,6.22
2022-08-28T09:18:50.816Z,8.85
2022-08-28T09:21:29.438Z,9.77
2022-08-28T09:23:57.248Z,9.98
2022-08-28T09:26:25.804Z,13.45
2022-08-28T09:29:01.168Z,10.68
2022-08-28T09:31:33.427Z,10.82
2022-08-28T09:34:18.151Z,10.70
2022-08-28T09:36:45.961Z,6.80
2022-08-28T09:39:13.290Z,11.00
2022-08-28T09:42:14.565Z,5.55
2022-08-28T09:44:56.583Z,7.10
2022-08-28T09:47:46.914Z,7.20
2022-08-28T09:50:20.382Z,6.97
2022-08-28T09:52:47.833Z,8.38
2022-08-28T09:55:26.600Z,11.02
2022-08-28T09:57:54.978Z,11.13
2022-08-28T10:00:23.037Z,7.55
2022-08-28T10:02:53.130Z,7.03
2022-08-28T10:05:29.549Z,10.32
2022-08-28T10:08:03.199Z,5.78
2022-08-28T10:10:36.033Z,9.35
2022-08-28T10:13:24.449Z,6.78
2022-08-28T10:15:54.499Z,9.45
2022-08-28T10:21:13.451Z,8.75
2022-08-28T10:23:50.396Z,12.48
2022-08-28T10:26:24.146Z,10.70
2022-08-28T10:29:10.993Z,8.07
2022-08-28T10:32:04.361Z,8.93
2022-08-28T10:34:40.936Z,13.60
2022-08-28T10:37:27.116Z,6.38
2022-08-28T10:39:59.192Z,8.70
2022-08-28T10:42:36.139Z,7.45
2022-08-28T10:45:10.754Z,5.95
2022-08-28T10:47:40.114Z,7.18
2022-08-28T10:50:27.586Z,5.43
2022-08-28T10:52:58.459Z,7.30
2022-08-28T10:55:25.766Z,6.75
2022-08-28T10:57:55.937Z,5.57
2022-08-28T11:00:24.154Z,7.32
2022-08-28T11:02:53.656Z,8.15
2022-08-28T11:05:21.820Z,9.20
2022-08-28T11:07:52.171Z,7.78
2022-08-28T11:10:39.698Z,7.70
2022-08-28T11:13:09.336Z,10.40
2022-08-28T11:15:37.586Z,11.95
2022-08-28T11:18:05.158Z,9.00
2022-08-28T11:20:32.651Z,7.95
2022-08-28T11:23:08.365Z,6.93
2022-08-28T11:25:43.191Z,7.60
2022-08-28T11:28:14.532Z,9.63
2022-08-28T11:30:43.047Z,7.82
2022-08-28T11:33:30.630Z,6.97
2022-08-28T11:35:58.134Z,6.15
2022-08-28T11:38:43.510Z,17.30
2022-08-28T11:41:15.826Z,8.02
2022-08-28T11:43:44.413Z,6.70
2022-08-28T11:46:13.901Z,12.65
2022-08-28T11:48:43.261Z,10.45
2022-08-28T11:51:19.448Z,6.78
2022-08-28T11:54:05.460Z,9.77
2022-08-28T11:56:41.731Z,6.50
2022-08-28T11:59:25.454Z,11.45
2022-08-28T12:02:21.284Z,4.78
2022-08-28T12:04:48.700Z,6.20
2022-08-28T12:07:17.451Z,12.45
2022-08-28T12:09:46.181Z,6.10
2022-08-28T12:12:22.585Z,9.27
2022-08-28T12:14:55.875Z,7.97
2022-08-28T12:17:24.504Z,4.88
2022-08-28T12:20:14.537Z,7.80
2022-08-28T12:22:53.277Z,6.25
2022-08-28T12:25:27.322Z,10.80
2022-08-28T12:27:54.881Z,6.20
2022-08-28T12:30:29.819Z,5.75
2022-08-28T12:33:02.076Z,8.40
2022-08-28T12:35:30.801Z,7.05
2022-08-28T12:37:58.124Z,8.60
2022-08-28T12:40:27.405Z,12.43
2022-08-28T12:43:05.172Z,12.43
2022-08-28T12:45:32.447Z,8.35
2022-08-28T12:48:01.625Z,10.55
2022-08-28T12:50:31.562Z,7.55
2022-08-28T12:53:00.939Z,8.07
2022-08-28T12:55:28.708Z,7.28
2022-08-28T12:57:56.242Z,7.53
2022-08-28T13:00:25.194Z,7.90
2022-08-28T13:02:54.492Z,6.55
2022-08-28T13:05:41.220Z,7.28
2022-08-28T13:08:12.716Z,9.30
2022-08-28T13:10:41.831Z,10.90
2022-08-28T13:13:11.752Z,11.95
2022-08-28T13:16:01.777Z,6.78
2022-08-28T13:18:50.367Z,8.67
2022-08-28T13:21:32.574Z,7.20
2022-08-28T13:24:22.303Z,7.10
2022-08-28T13:27:01.951Z,11.38
2022-08-28T13:29:29.331Z,7.53
2022-08-28T13:32:08.199Z,9.95
2022-08-28T13:34:36.814Z,8.10
2022-08-28T13:37:20.021Z,5.65
2022-08-28T13:39:48.127Z,6.60
2022-08-28T13:42:18.016Z,7.15
2022-08-28T13:44:56.827Z,9.87
2022-08-28T13:47:24.167Z,10.25
2022-08-28T13:49:51.488Z,8.23
2022-08-28T13:52:18.807Z,9.63
2022-08-28T13:54:46.104Z,6.97
2022-08-28T13:57:13.931Z,9.68
2022-08-28T13:59:41.369Z,7.00
2022-08-28T14:02:30.590Z,11.60
2022-08-28T14:04:57.970Z,8.73
2022-08-28T14:07:25.439Z,4.68
2022-08-28T14:09:56.222Z,8.25
2022-08-28T14:12:27.850Z,7.82
2022-08-28T14:15:00.422Z,12.90
2022-08-28T14:17:27.758Z,6.05
2022-08-28T14:19:55.223Z,6.45
2022-08-28T14:22:22.565Z,6.85
2022-08-28T14:24:49.879Z,7.72
2022-08-28T14:27:17.846Z,8.13
2022-08-28T14:29:45.203Z,7.03
2022-08-28T14:32:12.636Z,5.53
2022-08-28T14:34:39.999Z,7.60
2022-08-28T14:37:07.406Z,11.38
2022-08-28T14:39:34.772Z,8.63
2022-08-28T14:42:03.226Z,5.95
2022-08-28T14:44:31.433Z,7.25
2022-08-28T14:46:59.232Z,8.07
2022-08-28T14:49:28.355Z,7.43
2022-08-28T14:51:57.102Z,10.95
2022-08-28T14:54:25.307Z,9.07
2022-08-28T14:56:53.668Z,5.85
2022-08-28T14:59:24.508Z,9.38
2022-08-28T15:01:52.546Z,8.82
2022-08-28T15:04:22.812Z,8.25
2022-08-28T15:06:51.353Z,8.27
2022-08-28T15:09:19.198Z,5.97
2022-08-28T15:11:46.591Z,6.53
2022-08-28T15:14:13.905Z,8.30
2022-08-28T15:16:42.791Z,8.32
2022-08-28T15:19:12.455Z,8.43
2022-08-28T15:21:44.695Z,6.97
2022-08-28T15:24:14.789Z,7.85
2022-08-28T15:26:42.457Z,8.65
2022-08-28T15:29:11.945Z,10.93
2022-08-28T15:31:42.415Z,9.57
2022-08-28T15:34:13.564Z,9.68
2022-08-28T15:36:41.940Z,11.95
2022-08-28T15:39:27.978Z,9.57
2022-08-28T15:41:55.433Z,8.52
2022-08-28T15:44:23.002Z,9.77
2022-08-28T15:46:54.890Z,9.95
2022-08-28T15:49:23.942Z,8.95
2022-08-28T15:51:52.227Z,8.25
2022-08-28T15:54:20.257Z,8.60
2022-08-28T15:56:48.018Z,12.07
2022-08-28T15:59:18.131Z,15.60
2022-08-28T16:01:45.671Z,15.32
2022-08-28T16:04:13.768Z,15.07
2022-08-28T16:06:41.981Z,13.07
2022-08-28T16:09:10.098Z,14.07
2022-08-28T16:11:38.830Z,18.25
2022-08-28T16:14:07.929Z,12.30
2022-08-28T16:16:35.430Z,15.27
2022-08-28T16:19:03.524Z,13.45
2022-08-28T16:21:31.188Z,16.60
2022-08-28T16:23:58.638Z,11.70
2022-08-28T16:26:26.005Z,16.48
2022-08-28T16:28:53.343Z,13.85
2022-08-28T16:31:21.318Z,9.85
2022-08-28T16:33:49.809Z,14.85
2022-08-28T16:36:18.689Z,14.18
2022-08-28T16:38:49.688Z,14.95
2022-08-28T16:41:28.113Z,11.65
2022-08-28T16:43:56.493Z,12.18
2022-08-28T16:46:25.633Z,13.05
2022-08-28T16:48:53.414Z,15.13
2022-08-28T16:51:20.792Z,15.88
2022-08-28T16:53:48.489Z,12.10
2022-08-28T16:56:17.411Z,8.15
2022-08-28T16:58:45.164Z,10.00
2022-08-28T17:01:13.452Z,10.27
2022-08-28T17:03:41.703Z,12.93
2022-08-28T17:06:13.682Z,13.55
2022-08-28T17:08:41.006Z,13.60
2022-08-28T17:11:08.445Z,10.13
2022-08-28T17:13:35.869Z,12.60
2022-08-28T17:16:03.758Z,26.40
2022-08-28T17:18:31.418Z,18.10
2022-08-28T17:21:17.282Z,19.15
2022-08-28T17:23:44.669Z,15.25
2022-08-28T17:26:11.979Z,13.40
2022-08-28T17:28:39.318Z,14.80
2022-08-28T17:31:07.737Z,13.85
2022-08-28T17:33:37.687Z,12.32
2022-08-28T17:36:06.260Z,8.88
2022-08-28T17:38:45.182Z,10.90
2022-08-28T17:41:12.494Z,12.50
2022-08-28T17:43:40.011Z,10.90
2022-08-28T17:46:07.814Z,10.77
2022-08-28T17:48:36.686Z,11.95
2022-08-28T17:51:04.559Z,14.18
2022-08-28T17:53:31.950Z,12.10
2022-08-28T17:55:59.410Z,14.20
2022-08-28T17:58:26.733Z,16.42
2022-08-28T18:00:54.142Z,16.92
2022-08-28T18:03:21.666Z,12.60
2022-08-28T18:05:48.969Z,13.95
2022-08-28T18:08:16.334Z,16.27
2022-08-28T18:10:43.801Z,12.10
2022-08-28T18:13:11.273Z,15.35
2022-08-28T18:15:38.601Z,16.00
2022-08-28T18:18:06.049Z,19.73
2022-08-28T18:20:33.461Z,12.07
2022-08-28T18:23:00.721Z,16.42
2022-08-28T18:25:50.517Z,11.90
2022-08-28T18:28:22.333Z,16.38
2022-08-28T18:30:50.821Z,13.07
2022-08-28T18:33:19.073Z,18.38
2022-08-28T18:35:49.468Z,16.50
2022-08-28T18:38:17.165Z,14.23
2022-08-28T18:40:45.137Z,13.85
2022-08-28T18:43:12.851Z,13.25
2022-08-28T18:45:40.739Z,15.73
2022-08-28T18:48:08.225Z,13.57
2022-08-28T18:50:35.808Z,14.13
2022-08-28T18:53:04.791Z,12.13
2022-08-28T18:55:32.567Z,11.23
2022-08-28T18:58:00.748Z,11.93
2022-08-28T19:00:28.595Z,19.35
2022-08-28T19:02:56.059Z,14.00
2022-08-28T19:05:23.812Z,13.48
2022-08-28T19:07:51.349Z,14.10
2022-08-28T19:10:32.681Z,21.80
2022-08-28T19:13:01.618Z,16.80
2022-08-28T19:15:29.248Z,16.73
2022-08-28T19:17:56.651Z,18.67
2022-08-28T19:20:24.043Z,18.83
2022-08-28T19:22:51.650Z,16.98
2022-08-28T19:25:27.658Z,19.02
2022-08-28T19:27:58.838Z,17.27
2022-08-28T19:30:27.371Z,21.10
2022-08-28T19:32:54.987Z,14.90
2022-08-28T19:35:24.595Z,13.55
2022-08-28T19:37:52.374Z,24.67
2022-08-28T19:40:20.721Z,18.65
2022-08-28T19:42:49.927Z,17.77
2022-08-28T19:45:18.078Z,19.98
2022-08-28T19:47:47.086Z,17.08
2022-08-28T19:50:14.654Z,22.42
2022-08-28T19:52:43.236Z,17.05
2022-08-28T19:55:14.345Z,15.57
2022-08-28T19:57:41.687Z,18.60
2022-08-28T20:00:09.968Z,19.77
2022-08-28T20:02:37.375Z,14.70
2022-08-28T20:05:05.597Z,16.42
2022-08-28T20:07:32.940Z,16.60
2022-08-28T20:10:00.276Z,15.77
2022-08-28T20:12:27.601Z,23.73
2022-08-28T20:14:55.103Z,19.13
2022-08-28T20:17:23.535Z,15.68
2022-08-28T20:19:50.904Z,21.00
2022-08-28T20:22:18.256Z,22.20
2022-08-28T20:24:45.781Z,17.88
2022-08-28T20:27:13.100Z,20.10
2022-08-28T20:29:40.407Z,16.65
2022-08-28T20:32:08.775Z,25.20
2022-08-28T20:34:36.117Z,23.10
2022-08-28T20:37:03.575Z,24.55
2022-08-28T20:39:30.906Z,24.50
2022-08-28T20:41:58.207Z,21.50
2022-08-28T20:44:25.806Z,22.40
2022-08-28T20:46:53.733Z,21.88
2022-08-28T20:49:22.512Z,25.15
2022-08-28T20:51:53.002Z,24.80
2022-08-28T20:54:21.625Z,20.98
2022-08-28T20:56:49.372Z,26.33
2022-08-28T20:59:17.013Z,20.25
2022-08-28T21:01:44.438Z,17.20
2022-08-28T21:04:11.863Z,20.17
2022-08-28T21:06:39.142Z,20.02
2022-08-28T21:09:06.459Z,20.40
2022-08-28T21:11:33.786Z,21.48
2022-08-28T21:14:01.246Z,19.88
2022-08-28T21:16:28.646Z,23.27
2022-08-28T21:19:14.657Z,18.33
2022-08-28T21:21:42.520Z,21.00
2022-08-28T21:24:10.749Z,20.75
2022-08-28T21:26:40.134Z,23.75
2022-08-28T21:29:10.427Z,20.58
2022-08-28T21:31:41.770Z,22.75
2022-08-28T21:34:09.693Z,23.33
2022-08-28T21:36:38.178Z,19.15
2022-08-28T21:39:06.713Z,19.08
2022-08-28T21:41:34.204Z,19.05
2022-08-28T21:44:01.594Z,16.65
2022-08-28T21:46:29.248Z,23.40
2022-08-28T21:48:56.687Z,26.17
2022-08-28T21:51:24.695Z,21.63
2022-08-28T21:53:52.510Z,22.80
2022-08-28T21:56:22.895Z,28.50
2022-08-28T21:58:51.146Z,29.67
2022-08-28T22:01:18.901Z,20.95
2022-08-28T22:03:46.687Z,25.80
2022-08-28T22:06:15.665Z,25.35
2022-08-28T22:08:43.350Z,28.23
2022-08-28T22:11:11.359Z,20.58
2022-08-28T22:13:39.211Z,21.92
2022-08-28T22:16:07.089Z,22.58
2022-08-28T22:18:34.704Z,19.33
2022-08-28T22:21:21.178Z,22.67
2022-08-28T22:23:48.655Z,17.40
2022-08-28T22:26:18.242Z,21.45
2022-08-28T22:28:46.255Z,21.42
2022-08-28T22:31:14.002Z,23.38
2022-08-28T22:33:43.086Z,25.10
2022-08-28T22:36:10.988Z,23.45
2022-08-28T22:38:39.293Z,18.90
2022-08-28T22:41:06.890Z,20.00
2022-08-28T22:43:34.439Z,23.48
2022-08-28T22:46:02.049Z,17.23
2022-08-28T22:48:30.355Z,21.90
2022-08-28T22:51:03.091Z,16.13
2022-08-28T22:53:31.197Z,19.25
2022-08-28T22:56:00.603Z,24.88
2022-08-28T22:58:31.793Z,21.48
2022-08-28T23:01:01.851Z,21.90
2022-08-28T23:03:29.312Z,21.02
2022-08-28T23:05:56.825Z,23.88
2022-08-28T23:08:24.480Z,26.40
2022-08-28T23:10:59.697Z,23.92
2022-08-28T23:13:27.416Z,24.98
2022-08-28T23:15:54.825Z,21.52
2022-08-28T23:18:22.444Z,21.20
2022-08-28T23:20:50.573Z,18.40
2022-08-28T23:23:19.065Z,21.42
2022-08-28T23:25:46.456Z,22.95
2022-08-28T23:28:14.205Z,21.17
2022-08-28T23:30:44.105Z,23.60
2022-08-28T23:33:23.257Z,23.33
2022-08-28T23:35:51.878Z,20.77
2022-08-28T23:38:19.341Z,23.58
2022-08-28T23:40:48.289Z,20.05
2022-08-28T23:43:18.468Z,21.85
2022-08-28T23:45:45.912Z,23.73
2022-08-28T23:48:15.713Z,22.33
2022-08-28T23:50:43.417Z,21.98
2022-08-28T23:53:10.819Z,23.10
2022-08-28T23:55:38.409Z,23.67
2022-08-28T23:58:06.021Z,22.98
